Time;durP1;ratioP1;P1;durP2;ratioP2;P2;SDS_P1;SDS_P2;PMS_P1;PMS_P2;Temp;Humidity;BMP_temperature;BMP_pressure;BME280_temperature;BME280_humidity;BME280_pressure;Samples;Min_cycle;Max_cycle;Signal;HPM_P1;HPM_P2
2022/06/17 00:01:56;;;;;;;10.13;5.13;;;;;;;17.90;75.81;101981.63;5048975;28;20049;-74
2022/06/17 00:04:22;;;;;;;12.20;5.30;;;;;;;17.90;73.64;101987.22;5052864;28;20063;-73
2022/06/17 00:06:54;;;;;;;12.20;5.43;;;;;;;17.90;74.42;101992.81;5049719;28;20456;-75
2022/06/17 00:09:23;;;;;;;11.88;5.80;;;;;;;17.85;73.67;101986.84;5051743;28;20243;-75
2022/06/17 00:11:50;;;;;;;10.38;5.57;;;;;;;17.80;75.43;101993.72;5045555;28;20052;-74
2022/06/17 00:14:29;;;;;;;10.95;4.93;;;;;;;17.71;76.11;101987.00;5052381;28;20166;-74
2022/06/17 00:16:56;;;;;;;10.70;5.03;;;;;;;17.62;76.58;101981.13;5046176;28;20060;-74
2022/06/17 00:19:22;;;;;;;11.73;5.25;;;;;;;17.60;75.20;101972.31;5051587;28;20052;-75
2022/06/17 00:21:52;;;;;;;8.65;4.75;;;;;;;17.56;75.85;101963.19;5041396;28;20049;-75
2022/06/17 00:24:21;;;;;;;9.77;4.95;;;;;;;17.54;76.63;101951.59;5044566;28;20589;-75
2022/06/17 00:26:48;;;;;;;9.82;5.35;;;;;;;17.51;76.62;101949.63;5042563;28;20048;-75
2022/06/17 00:29:17;;;;;;;9.95;4.47;;;;;;;17.50;75.92;101954.44;5046469;28;20142;-76
2022/06/17 00:31:44;;;;;;;10.75;5.05;;;;;;;17.47;76.29;101960.06;5043686;28;20049;-75
2022/06/17 00:34:11;;;;;;;8.18;4.70;;;;;;;17.41;77.71;101947.69;5042901;28;20064;-76
2022/06/17 00:36:39;;;;;;;12.93;5.30;;;;;;;17.38;77.81;101954.13;5052660;28;20052;-76
2022/06/17 00:39:13;;;;;;;11.48;4.82;;;;;;;17.29;79.49;101951.81;5040941;28;20049;-76
2022/06/17 00:41:44;;;;;;;13.15;6.15;;;;;;;17.26;80.22;101946.25;5036629;28;20056;-76
2022/06/17 00:44:40;;;;;;;10.48;6.05;;;;;;;17.21;80.70;101938.31;5045292;28;20044;-75
2022/06/17 00:47:21;;;;;;;13.07;5.40;;;;;;;17.16;80.19;101939.53;5047474;28;20052;-75
2022/06/17 00:50:03;;;;;;;9.38;4.80;;;;;;;17.15;83.07;101945.56;5039358;28;20051;-76
2022/06/17 00:52:41;;;;;;;13.48;5.90;;;;;;;17.10;83.40;101949.59;5042409;28;20286;-75
2022/06/17 00:55:14;;;;;;;10.95;5.13;;;;;;;17.08;82.64;101951.22;5049863;28;20127;-76
2022/06/17 00:57:41;;;;;;;9.90;5.13;;;;;;;17.06;80.98;101959.19;5042177;28;20045;-75
2022/06/17 01:00:08;;;;;;;9.00;5.00;;;;;;;17.01;81.37;101957.63;5038795;28;20057;-75
2022/06/17 01:02:40;;;;;;;13.32;5.63;;;;;;;16.94;83.00;101949.31;5044506;28;20063;-74
2022/06/17 01:05:08;;;;;;;13.32;5.00;;;;;;;16.96;82.23;101955.28;5040952;28;20049;-75
2022/06/17 01:07:53;;;;;;;14.00;5.60;;;;;;;16.93;83.08;101947.72;5044737;28;20757;-75
2022/06/17 01:10:21;;;;;;;12.55;5.72;;;;;;;16.94;82.25;101959.72;5040814;28;20102;-74
2022/06/17 01:12:57;;;;;;;13.27;5.30;;;;;;;16.90;82.91;101956.94;5044699;28;20052;-75
2022/06/17 01:15:26;;;;;;;10.63;5.25;;;;;;;16.88;82.65;101956.53;5069455;28;20139;-74
2022/06/17 01:17:53;;;;;;;10.02;5.10;;;;;;;16.85;82.89;101962.16;5069559;28;20153;-74
2022/06/17 01:20:22;;;;;;;9.40;5.20;;;;;;;16.82;85.78;101966.59;5076097;28;20075;-74
2022/06/17 01:22:52;;;;;;;12.30;5.63;;;;;;;16.77;83.92;101957.84;5062633;28;20054;-73
2022/06/17 01:25:20;;;;;;;12.07;5.13;;;;;;;16.73;84.66;101951.44;5066833;28;20049;-73
2022/06/17 01:27:50;;;;;;;12.93;5.55;;;;;;;16.68;84.93;101955.50;5066843;28;20049;-74
2022/06/17 01:30:19;;;;;;;13.27;5.82;;;;;;;16.65;84.29;101959.09;5066936;28;20056;-73
2022/06/17 01:32:58;;;;;;;9.68;5.22;;;;;;;16.60;86.62;101964.34;5067989;28;20123;-74
2022/06/17 01:35:29;;;;;;;14.48;5.88;;;;;;;16.56;87.22;101961.56;5066421;28;20074;-73
2022/06/17 01:37:57;;;;;;;12.63;5.53;;;;;;;16.55;85.16;101961.97;5072472;28;20135;-74
2022/06/17 01:40:28;;;;;;;13.68;5.40;;;;;;;16.52;85.53;101946.00;5066786;28;20172;-73
2022/06/17 01:43:00;;;;;;;10.55;5.78;;;;;;;16.48;86.95;101950.81;5068375;28;20063;-74
2022/06/17 01:45:26;;;;;;;12.48;5.75;;;;;;;16.45;86.79;101949.66;5074142;28;20052;-74
2022/06/17 01:47:53;;;;;;;11.15;5.45;;;;;;;16.43;90.54;101956.84;5075808;28;20073;-74
2022/06/17 01:50:26;;;;;;;15.68;6.28;;;;;;;16.45;88.71;101960.00;5069964;28;20041;-74
2022/06/17 01:52:53;;;;;;;12.60;5.95;;;;;;;16.44;88.85;101961.22;5070194;28;20056;-74
2022/06/17 01:55:36;;;;;;;9.07;5.20;;;;;;;16.40;90.13;101963.22;5060178;28;20048;-75
2022/06/17 01:58:09;;;;;;;14.60;5.60;;;;;;;16.37;89.81;101964.81;5064428;28;20052;-74
2022/06/17 02:00:36;;;;;;;13.20;6.05;;;;;;;16.34;90.82;101956.47;5066620;28;20105;-74
2022/06/17 02:03:15;;;;;;;13.50;5.55;;;;;;;16.33;89.59;101969.63;5063953;28;20072;-74
2022/06/17 02:05:47;;;;;;;11.40;5.47;;;;;;;16.29;91.39;101974.44;5068549;28;20040;-74
2022/06/17 02:08:14;;;;;;;12.55;5.82;;;;;;;16.25;90.09;101970.06;5060920;28;20057;-74
2022/06/17 02:10:43;;;;;;;12.07;5.85;;;;;;;16.27;91.33;101976.03;5078999;28;20058;-74
2022/06/17 02:13:12;;;;;;;10.63;5.30;;;;;;;16.25;89.64;101984.03;5069952;28;20047;-74
2022/06/17 02:15:39;;;;;;;11.18;6.00;;;;;;;16.21;90.26;101983.25;5062670;28;20576;-74
2022/06/17 02:18:10;;;;;;;10.43;5.43;;;;;;;16.19;89.29;101980.06;5086307;28;20086;-74
2022/06/17 02:20:38;;;;;;;12.70;5.55;;;;;;;16.18;90.78;101976.47;5063622;28;20047;-74
2022/06/17 02:23:05;;;;;;;12.63;5.72;;;;;;;16.14;90.47;101980.50;5067287;28;20119;-75
2022/06/17 02:25:39;;;;;;;11.25;5.60;;;;;;;16.15;90.20;101977.28;5065116;28;20040;-75
2022/06/17 02:28:08;;;;;;;12.00;5.68;;;;;;;16.11;90.18;101973.72;5060912;28;20064;-75
2022/06/17 02:30:35;;;;;;;11.13;5.72;;;;;;;16.12;92.55;101977.28;5065546;28;20054;-74
2022/06/17 02:33:04;;;;;;;13.40;5.85;;;;;;;16.09;91.48;101966.94;5067847;28;20044;-74
2022/06/17 02:35:47;;;;;;;14.98;5.80;;;;;;;16.04;93.28;101967.34;5065817;28;20056;-74
2022/06/17 02:38:17;;;;;;;12.55;6.13;;;;;;;16.02;92.19;101964.97;5069493;28;20048;-75
2022/06/17 02:40:47;;;;;;;11.70;5.53;;;;;;;16.02;92.88;101972.53;5075166;28;20058;-74
2022/06/17 02:43:18;;;;;;;12.88;6.43;;;;;;;15.99;93.62;101979.72;5067539;28;20076;-74
2022/06/17 02:45:53;;;;;;;16.63;6.55;;;;;;;15.94;96.01;101963.41;5074769;28;20523;-74
2022/06/17 02:48:24;;;;;;;12.65;6.43;;;;;;;15.94;95.65;101977.38;5068676;28;20574;-75
2022/06/17 02:50:53;;;;;;;12.70;6.75;;;;;;;15.91;95.42;101972.59;5069870;28;20046;-74
2022/06/17 02:53:27;;;;;;;16.15;7.03;;;;;;;15.90;94.51;101976.59;5068055;28;20503;-74
2022/06/17 02:55:55;;;;;;;12.38;6.15;;;;;;;15.88;95.10;101978.16;5055887;28;20045;-75
2022/06/17 02:58:47;;;;;;;13.52;6.35;;;;;;;15.85;94.96;101978.97;5070433;28;20045;-74
2022/06/17 03:01:20;;;;;;;13.35;7.20;;;;;;;15.84;94.23;101981.00;5068477;28;21136;-74
2022/06/17 03:03:48;;;;;;;13.63;6.78;;;;;;;15.81;94.43;101981.78;5068708;28;20052;-74
2022/06/17 03:06:20;;;;;;;12.55;6.78;;;;;;;15.76;94.13;101967.47;5076547;28;20052;-75
2022/06/17 03:08:50;;;;;;;13.82;6.88;;;;;;;15.73;95.00;101979.41;5066242;28;20054;-74
2022/06/17 03:11:18;;;;;;;11.27;5.95;;;;;;;15.70;95.22;101969.88;5070417;28;20138;-74
2022/06/17 03:13:51;;;;;;;13.35;6.60;;;;;;;15.65;94.49;101970.25;5068617;28;20131;-75
2022/06/17 03:16:18;;;;;;;11.57;6.90;;;;;;;15.69;96.98;101967.47;5066713;28;20521;-74
2022/06/17 03:18:48;;;;;;;14.32;7.32;;;;;;;15.65;96.92;101967.47;5063586;28;20048;-75
2022/06/17 03:21:20;;;;;;;14.82;7.38;;;;;;;15.70;96.92;101969.06;5076374;28;20136;-74
2022/06/17 03:24:14;;;;;;;14.07;7.88;;;;;;;15.69;97.81;101971.03;5064610;28;20053;-73
2022/06/17 03:27:05;;;;;;;13.30;7.30;;;;;;;15.70;96.80;101971.84;5063820;28;20099;-75
2022/06/17 03:29:34;;;;;;;13.73;7.03;;;;;;;15.70;96.89;101963.47;5061862;28;20782;-74
2022/06/17 03:32:06;;;;;;;14.65;7.38;;;;;;;15.72;97.15;101969.47;5055557;28;20049;-75
2022/06/17 03:34:50;;;;;;;19.48;7.18;;;;;;;15.72;95.88;101969.47;5075475;28;20055;-74
2022/06/17 03:37:20;;;;;;;14.10;7.53;;;;;;;15.74;96.90;101981.81;5080774;28;20755;-74
2022/06/17 03:39:54;;;;;;;15.30;7.03;;;;;;;15.76;96.60;101975.84;5064890;28;20051;-74
2022/06/17 03:42:41;;;;;;;16.75;7.82;;;;;;;15.73;96.18;101983.03;5062185;28;20501;-76
2022/06/17 03:45:07;;;;;;;16.80;7.85;;;;;;;15.77;97.45;101977.41;5066961;28;20048;-76
2022/06/17 03:47:34;;;;;;;17.23;7.50;;;;;;;15.79;97.15;101969.44;5062623;28;20041;-74
2022/06/17 03:50:08;;;;;;;17.33;8.52;;;;;;;15.77;98.46;101963.47;5071552;28;20131;-74
2022/06/17 03:52:48;;;;;;;17.17;7.45;;;;;;;15.77;97.13;101964.25;5066385;28;20453;-74
2022/06/17 03:55:17;;;;;;;13.85;7.57;;;;;;;15.80;97.54;101966.25;5067035;28;20055;-74
2022/06/17 03:57:48;;;;;;;13.82;7.82;;;;;;;15.81;98.84;101975.41;5064305;28;20140;-75
2022/06/17 04:00:30;;;;;;;15.88;7.35;;;;;;;15.81;98.78;101989.34;5069951;28;20134;-75
2022/06/17 04:02:59;;;;;;;15.13;7.72;;;;;;;15.81;99.23;101979.00;5069950;28;20124;-74
2022/06/17 04:05:28;;;;;;;19.98;8.75;;;;;;;15.91;98.90;101985.75;5064861;28;20535;-76
2022/06/17 04:07:55;;;;;;;13.35;7.93;;;;;;;15.99;98.57;101993.69;5060398;28;20056;-74
2022/06/17 04:10:26;;;;;;;14.80;7.72;;;;;;;16.06;97.26;101998.47;5064665;28;20053;-74
2022/06/17 04:12:52;;;;;;;15.00;7.63;;;;;;;16.14;98.65;102002.81;5063279;28;20088;-76
2022/06/17 04:15:37;;;;;;;14.48;7.35;;;;;;;16.16;97.88;101997.66;5076774;28;20134;-76
2022/06/17 04:18:03;;;;;;;17.88;8.10;;;;;;;16.23;98.69;102012.34;5069584;28;20053;-75
2022/06/17 04:20:35;;;;;;;18.42;7.97;;;;;;;16.29;98.76;102009.94;5066384;28;20150;-74
2022/06/17 04:23:10;;;;;;;14.65;7.70;;;;;;;16.36;97.60;102007.91;5070628;28;20075;-74
2022/06/17 04:25:40;;;;;;;17.40;7.88;;;;;;;16.39;97.64;102011.88;5062908;28;20056;-75
2022/06/17 04:28:12;;;;;;;15.07;7.30;;;;;;;16.45;97.74;102015.88;5073262;28;20127;-74
2022/06/17 04:30:48;;;;;;;14.18;7.10;;;;;;;16.45;97.24;102008.31;5066134;28;20134;-75
2022/06/17 04:33:35;;;;;;;13.55;6.53;;;;;;;16.57;97.99;102007.06;5070583;28;20407;-75
2022/06/17 04:36:10;;;;;;;15.60;7.22;;;;;;;16.60;98.53;102009.81;5090652;27;20237;-75
2022/06/17 04:38:48;;;;;;;12.10;6.90;;;;;;;16.61;99.26;102005.81;5070954;28;20056;-75
2022/06/17 04:41:17;;;;;;;17.05;7.45;;;;;;;16.65;98.33;102012.22;5068261;28;20619;-75
2022/06/17 04:43:47;;;;;;;15.38;7.93;;;;;;;16.67;97.62;102026.56;5067867;28;20049;-75
2022/06/17 04:46:23;;;;;;;14.15;7.28;;;;;;;16.72;97.78;102028.13;5067482;28;20045;-75
2022/06/17 04:48:51;;;;;;;16.42;7.68;;;;;;;16.69;97.78;102017.75;5067261;28;20067;-74
2022/06/17 04:51:18;;;;;;;17.55;8.18;;;;;;;16.70;96.77;102008.16;5069180;28;20048;-75
2022/06/17 04:53:47;;;;;;;19.17;8.57;;;;;;;16.72;98.02;102019.75;5073125;28;20535;-74
2022/06/17 04:56:30;;;;;;;13.55;7.32;;;;;;;16.72;98.31;102020.56;5068904;28;20147;-75
2022/06/17 04:58:57;;;;;;;20.10;7.75;;;;;;;16.76;98.05;102017.72;5075846;28;20055;-75
2022/06/17 05:01:26;;;;;;;18.92;7.05;;;;;;;16.78;97.64;102007.72;5065870;28;20605;-75
2022/06/17 05:03:58;;;;;;;19.13;7.95;;;;;;;16.81;98.09;102006.13;5066445;28;20052;-75
2022/06/17 05:06:25;;;;;;;14.68;7.43;;;;;;;16.86;97.47;101986.09;5051990;28;20041;-75
2022/06/17 05:09:00;;;;;;;16.55;7.53;;;;;;;16.94;97.89;101990.47;5064403;28;20144;-76
2022/06/17 05:11:31;;;;;;;16.73;7.88;;;;;;;17.05;97.23;101986.34;5066401;28;20543;-74
2022/06/17 05:14:07;;;;;;;18.40;7.75;;;;;;;17.15;96.93;101984.72;5062945;28;20098;-75
2022/06/17 05:16:34;;;;;;;14.25;7.68;;;;;;;17.29;96.47;101990.19;5069423;28;20056;-74
2022/06/17 05:19:00;;;;;;;16.38;8.30;;;;;;;17.37;95.28;101986.09;5060666;28;20110;-74
2022/06/17 05:21:27;;;;;;;17.77;8.60;;;;;;;17.52;94.27;101998.81;5061803;28;20140;-73
2022/06/17 05:23:56;;;;;;;19.77;8.32;;;;;;;17.59;93.23;102001.53;5072097;28;20139;-73
2022/06/17 05:26:24;;;;;;;18.15;8.80;;;;;;;17.67;92.27;101995.44;5062254;28;20127;-73
2022/06/17 05:28:51;;;;;;;15.45;8.32;;;;;;;17.84;92.01;101993.66;5065779;28;20056;-73
2022/06/17 05:31:22;;;;;;;19.17;8.73;;;;;;;18.02;91.13;102000.66;5067232;28;20178;-73
2022/06/17 05:33:49;;;;;;;20.27;8.38;;;;;;;18.22;90.89;101998.03;5059791;28;20177;-72
2022/06/17 05:36:16;;;;;;;17.75;7.88;;;;;;;18.44;89.56;101990.19;5069611;28;20052;-73
2022/06/17 05:38:43;;;;;;;17.55;8.25;;;;;;;18.70;88.21;102001.41;5067362;28;20080;-73
2022/06/17 05:41:15;;;;;;;17.20;9.13;;;;;;;18.93;86.59;102004.28;5065969;28;20890;-73
2022/06/17 05:43:42;;;;;;;16.77;7.78;;;;;;;19.09;84.88;102001.63;5066239;28;20055;-73
2022/06/17 05:46:09;;;;;;;18.33;7.40;;;;;;;19.27;83.82;102002.16;5061576;28;20576;-73
2022/06/17 05:48:35;;;;;;;14.70;6.93;;;;;;;19.43;82.55;101999.50;5063392;28;20052;-72
2022/06/17 05:51:02;;;;;;;15.65;7.10;;;;;;;19.57;81.70;101999.25;5060402;28;20047;-72
2022/06/17 05:53:29;;;;;;;17.02;7.60;;;;;;;19.63;80.21;102000.34;5067002;28;20593;-73
2022/06/17 05:55:56;;;;;;;17.23;8.02;;;;;;;19.71;79.33;101995.41;5064137;28;20131;-70
2022/06/17 05:58:24;;;;;;;14.98;6.93;;;;;;;19.81;78.65;101998.00;5058290;28;20053;-75
2022/06/17 06:00:50;;;;;;;13.95;7.22;;;;;;;19.91;78.13;101979.38;5065692;28;20149;-71
2022/06/17 06:03:25;;;;;;;14.30;6.70;;;;;;;20.02;79.20;101988.38;5063583;28;20052;-73
2022/06/17 06:05:52;;;;;;;19.63;7.57;;;;;;;20.20;78.74;101988.81;5061366;28;20048;-73
2022/06/17 06:08:19;;;;;;;17.05;6.40;;;;;;;20.34;77.69;101980.91;5065485;28;20082;-73
2022/06/17 06:10:46;;;;;;;17.08;6.60;;;;;;;20.45;76.71;101991.91;5065180;28;20492;-74
2022/06/17 06:13:18;;;;;;;16.60;6.97;;;;;;;20.55;75.73;101993.69;5070416;28;20045;-73
2022/06/17 06:15:47;;;;;;;11.63;5.57;;;;;;;20.68;75.09;101991.78;5064482;28;20094;-72
2022/06/17 06:18:16;;;;;;;18.40;6.53;;;;;;;20.77;74.20;101991.19;5056474;28;20052;-76
2022/06/17 06:20:43;;;;;;;19.30;6.22;;;;;;;20.88;74.52;102003.78;5053635;28;20063;-72
2022/06/17 06:23:10;;;;;;;17.90;6.50;;;;;;;20.98;73.88;102001.97;5063110;28;20071;-74
2022/06/17 06:25:37;;;;;;;13.93;5.70;;;;;;;21.04;73.54;101995.41;5059316;28;20541;-69
2022/06/17 06:28:11;;;;;;;23.35;6.13;;;;;;;21.20;72.10;102008.69;5062587;28;20595;-72
2022/06/17 06:30:38;;;;;;;13.77;5.10;;;;;;;21.21;69.57;102010.25;5060260;28;20052;-71
2022/06/17 06:33:05;;;;;;;14.98;4.82;;;;;;;21.23;69.82;102000.13;5062046;28;20044;-74
2022/06/17 06:35:36;;;;;;;15.05;4.63;;;;;;;21.26;68.73;101998.50;5061893;28;20044;-71
2022/06/17 06:38:04;;;;;;;19.20;5.78;;;;;;;21.33;67.74;102003.94;5064735;28;20551;-74
2022/06/17 06:40:31;;;;;;;10.73;4.65;;;;;;;21.43;67.74;102000.84;5059273;28;20134;-73
2022/06/17 06:42:58;;;;;;;13.68;5.00;;;;;;;21.42;65.61;101998.47;5056016;28;20044;-72
2022/06/17 06:45:32;;;;;;;12.75;4.38;;;;;;;21.46;65.61;101997.16;5058688;28;20525;-73
2022/06/17 06:48:02;;;;;;;11.90;4.55;;;;;;;21.55;66.06;101993.72;5057523;28;20050;-72
2022/06/17 06:50:31;;;;;;;18.25;4.00;;;;;;;21.62;65.64;102001.97;5058657;28;20084;-70
2022/06/17 06:52:58;;;;;;;11.40;4.13;;;;;;;21.64;62.97;102010.78;5059249;28;21540;-68
2022/06/17 06:55:26;;;;;;;11.40;3.65;;;;;;;21.73;63.84;102010.97;5058860;28;20059;-73
2022/06/17 06:57:54;;;;;;;13.07;4.30;;;;;;;21.78;62.72;102010.44;5060259;28;20040;-70
2022/06/17 07:00:35;;;;;;;11.27;3.83;;;;;;;21.95;62.63;102004.31;5062699;28;20416;-71
2022/06/17 07:03:03;;;;;;;12.13;3.50;;;;;;;22.03;60.60;101999.25;5053075;28;20128;-73
2022/06/17 07:05:30;;;;;;;10.85;3.50;;;;;;;22.18;58.99;101994.81;5052308;28;20585;-75
2022/06/17 07:07:57;;;;;;;10.50;3.65;;;;;;;22.25;56.57;101992.59;5064298;28;20460;-73
2022/06/17 07:10:28;;;;;;;7.38;3.05;;;;;;;22.35;55.86;101996.31;5065944;28;20044;-72
2022/06/17 07:12:55;;;;;;;11.88;2.78;;;;;;;22.41;54.88;101991.72;5060652;28;20782;-72
2022/06/17 07:15:24;;;;;;;6.03;2.83;;;;;;;22.56;55.82;101992.88;5063820;28;20060;-73
2022/06/17 07:18:14;;;;;;;9.43;3.35;;;;;;;22.69;55.11;101996.53;5058625;28;20043;-72
2022/06/17 07:20:46;;;;;;;8.40;2.45;;;;;;;22.72;52.98;101995.63;5060712;28;20071;-72
2022/06/17 07:23:23;;;;;;;7.47;2.58;;;;;;;22.76;52.41;101990.66;5054278;28;20063;-73
2022/06/17 07:25:50;;;;;;;7.80;2.95;;;;;;;22.88;52.75;101989.09;5054881;28;20045;-71
2022/06/17 07:28:25;;;;;;;4.68;2.55;;;;;;;22.87;51.64;101985.47;5069412;28;20093;-73
2022/06/17 07:30:53;;;;;;;8.35;2.90;;;;;;;23.11;52.38;101995.16;5059652;28;20059;-72
2022/06/17 07:33:22;;;;;;;8.38;3.20;;;;;;;23.08;50.40;101989.63;5061766;28;21615;-71
2022/06/17 07:35:53;;;;;;;6.82;2.90;;;;;;;23.01;49.90;101995.53;5060438;28;20194;-71
2022/06/17 07:41:09;;;;;;;2.70;1.40;;;;;;;23.08;49.02;101984.75;5052380;28;20424;-71
2022/06/17 07:43:35;;;;;;;5.72;2.70;;;;;;;23.16;49.73;101988.97;5058925;28;20090;-70
2022/06/17 07:46:04;;;;;;;6.30;2.72;;;;;;;23.26;50.32;101990.66;5061161;28;20154;-70
2022/06/17 07:48:31;;;;;;;8.35;3.42;;;;;;;23.32;49.32;101979.59;5060170;28;20090;-71
2022/06/17 07:50:58;;;;;;;6.30;2.47;;;;;;;23.32;49.00;101988.81;5059341;28;20135;-70
2022/06/17 07:53:28;;;;;;;7.93;3.00;;;;;;;23.37;48.90;101974.16;5065101;28;20551;-72
2022/06/17 07:55:56;;;;;;;8.30;2.58;;;;;;;23.48;48.22;101968.16;5064136;28;20520;-69
2022/06/17 07:58:22;;;;;;;8.07;3.25;;;;;;;23.63;48.10;101963.56;5053320;28;20568;-70
2022/06/17 08:00:49;;;;;;;9.70;3.15;;;;;;;23.71;47.50;101960.03;5061312;28;20052;-72
2022/06/17 08:03:18;;;;;;;7.15;3.00;;;;;;;23.83;48.02;101967.66;5055646;28;20563;-68
2022/06/17 08:05:48;;;;;;;8.30;2.88;;;;;;;24.01;47.89;101956.53;5063370;28;20139;-67
2022/06/17 08:08:21;;;;;;;5.45;2.60;;;;;;;24.13;46.67;101952.06;5061574;28;20708;-72
2022/06/17 08:11:07;;;;;;;3.08;1.38;;;;;;;23.97;45.50;101967.19;5069159;28;20044;-70
2022/06/17 08:13:34;;;;;;;6.68;1.55;;;;;;;23.94;44.07;101976.59;5061052;28;20074;-74
2022/06/17 08:16:03;;;;;;;3.70;1.58;;;;;;;23.96;45.39;101988.19;5066417;28;20059;-72
2022/06/17 08:18:30;;;;;;;6.07;3.22;;;;;;;24.10;45.60;101965.06;5064252;28;20114;-71
2022/06/17 08:20:56;;;;;;;7.20;2.65;;;;;;;24.18;45.65;101965.59;5063077;28;20139;-69
2022/06/17 08:23:23;;;;;;;10.18;3.20;;;;;;;24.42;46.59;101961.03;5065933;28;20045;-69
2022/06/17 08:25:49;;;;;;;9.80;3.05;;;;;;;24.57;45.52;101954.34;5058110;28;20075;-69
2022/06/17 08:28:17;;;;;;;7.97;3.17;;;;;;;24.65;44.58;101964.19;5063411;28;20054;-69
2022/06/17 08:30:47;;;;;;;6.82;3.22;;;;;;;24.59;44.30;101962.38;5058501;28;20508;-72
2022/06/17 08:33:14;;;;;;;7.38;2.65;;;;;;;24.73;44.67;101962.63;5063486;28;20742;-71
2022/06/17 08:36:14;;;;;;;6.95;2.30;;;;;;;24.77;44.02;101965.34;5057190;28;20780;-69
2022/06/17 08:38:51;;;;;;;8.52;2.85;;;;;;;24.70;44.28;101969.22;5065264;28;20580;-69
2022/06/17 08:41:23;;;;;;;9.63;2.30;;;;;;;24.78;43.54;101970.50;5064618;28;20132;-70
2022/06/17 08:43:56;;;;;;;7.65;3.00;;;;;;;24.96;43.77;101967.75;5066585;28;20044;-72
2022/06/17 08:46:35;;;;;;;11.82;2.97;;;;;;;24.92;44.18;101964.28;5064296;28;20753;-71
2022/06/17 08:49:36;;;;;;;4.00;2.58;;;;;;;24.83;42.88;101958.59;5061346;28;20417;-74
2022/06/17 08:52:06;;;;;;;2.10;1.60;;;;;;;24.76;42.79;101952.41;5064640;28;20048;-74
2022/06/17 08:55:10;;;;;;;7.78;2.92;;;;;;;24.92;42.91;101944.47;5066725;28;20131;-73
2022/06/17 08:57:54;;;;;;;6.60;2.50;;;;;;;24.88;42.78;101940.22;5062405;28;20055;-74
2022/06/17 09:00:51;;;;;;;8.07;3.33;;;;;;;25.09;42.35;101940.13;5062820;28;20424;-73
2022/06/17 09:03:49;;;;;;;8.82;3.83;;;;;;;25.11;42.64;101940.41;5038017;28;20495;-73
2022/06/17 09:06:25;;;;;;;6.68;2.95;;;;;;;25.31;40.70;101939.25;5060279;28;20611;-75
2022/06/17 09:09:14;;;;;;;8.38;3.15;;;;;;;25.46;41.28;101931.69;5065405;28;20127;-75
2022/06/17 09:11:59;;;;;;;7.45;2.97;;;;;;;25.38;41.11;101939.72;5071327;28;20130;-74
2022/06/17 09:14:46;;;;;;;2.75;1.45;;;;;;;25.29;41.13;101944.53;5066872;28;20147;-74
2022/06/17 09:17:26;;;;;;;3.22;1.67;;;;;;;25.02;41.51;101937.59;5060776;28;20059;-74
2022/06/17 09:19:59;;;;;;;4.03;1.90;;;;;;;25.15;41.20;101941.03;5067148;28;20040;-74
2022/06/17 09:22:32;;;;;;;7.35;2.75;;;;;;;25.29;40.64;101944.53;5061770;28;20131;-72
2022/06/17 09:25:07;;;;;;;9.05;3.20;;;;;;;25.50;40.80;101932.31;5069248;28;20159;-73
2022/06/17 09:27:42;;;;;;;9.80;3.17;;;;;;;25.60;41.00;101933.91;5060452;28;20156;-73
2022/06/17 09:30:12;;;;;;;;;;;;;;;25.85;41.96;101923.00;5060218;28;20532;-73
2022/06/17 09:32:43;;;;;;;6.75;2.92;;;;;;;25.89;41.16;101915.16;5063422;28;19974;-74
2022/06/17 09:35:13;;;;;;;;;;;;;;;26.02;40.33;101918.63;5065632;28;20133;-75
2022/06/17 09:38:05;;;;;;;9.57;2.65;;;;;;;26.03;40.23;101922.25;5065122;28;19928;-73
2022/06/17 09:40:37;;;;;;;10.43;3.08;;;;;;;26.23;40.12;101922.53;5085781;28;20063;-72
2022/06/17 09:43:30;;;;;;;6.80;3.33;;;;;;;26.39;38.84;101933.50;5063139;28;20155;-74
2022/06/17 09:46:20;;;;;;;8.93;3.10;;;;;;;26.40;39.12;101920.91;5061947;28;20144;-73
2022/06/17 09:48:59;;;;;;;5.88;2.83;;;;;;;26.25;38.17;101914.34;5061526;28;20408;-73
2022/06/17 09:51:52;;;;;;;6.68;2.65;;;;;;;26.22;37.80;101923.78;5059588;28;20497;-72
2022/06/17 09:54:43;;;;;;;8.32;2.97;;;;;;;26.41;37.93;101919.63;5060034;28;20076;-72
2022/06/17 09:57:19;;;;;;;8.15;2.90;;;;;;;26.34;37.27;101908.59;5067753;28;20129;-73
2022/06/17 09:59:54;;;;;;;5.35;2.40;;;;;;;26.36;36.87;101917.44;5058621;28;20128;-73
2022/06/17 10:02:33;;;;;;;5.47;2.78;;;;;;;26.50;37.88;101911.09;5065208;28;20049;-76
2022/06/17 10:05:11;;;;;;;3.72;1.58;;;;;;;26.55;37.47;101922.56;5065405;28;20083;-75
2022/06/17 10:08:03;;;;;;;4.03;1.55;;;;;;;26.55;36.24;101918.94;5058237;28;20114;-72
2022/06/17 10:10:41;;;;;;;2.85;1.88;;;;;;;26.62;36.88;101915.78;5064821;28;20097;-72
2022/06/17 10:13:30;;;;;;;7.55;2.70;;;;;;;26.75;36.99;101907.84;5061386;28;20055;-73
2022/06/17 10:19:35;;;;;;;5.40;2.53;;;;;;;27.10;36.95;101889.78;5057668;28;20048;-74
2022/06/17 10:22:23;;;;;;;6.95;2.35;;;;;;;27.47;36.99;101893.19;5076909;28;20135;-73
2022/06/17 10:25:28;;;;;;;6.53;2.75;;;;;;;27.76;36.51;101898.94;5064576;28;20049;-72
2022/06/17 10:28:22;;;;;;;8.98;2.78;;;;;;;27.92;36.84;101895.66;5031650;28;20086;-70
2022/06/17 10:30:54;;;;;;;10.13;2.85;;;;;;;28.00;36.46;101891.13;5029405;28;20048;-73
2022/06/17 10:33:21;;;;;;;3.45;2.40;;;;;;;28.21;36.09;101901.31;5056488;28;20059;-73
2022/06/17 10:35:48;;;;;;;3.67;2.40;;;;;;;28.33;35.84;101893.75;5061633;28;20493;-72
2022/06/17 10:38:20;;;;;;;6.55;2.60;;;;;;;28.10;34.94;101901.13;5066706;28;20049;-73
2022/06/17 10:40:47;;;;;;;5.40;2.40;;;;;;;28.03;34.84;101895.84;5066112;28;20056;-75
2022/06/17 10:43:23;;;;;;;4.20;1.88;;;;;;;27.95;34.01;101893.88;5062881;28;20113;-74
2022/06/17 10:45:51;;;;;;;8.18;2.63;;;;;;;27.92;34.48;101889.97;5063999;28;20056;-73
2022/06/17 10:48:43;;;;;;;4.20;2.20;;;;;;;28.23;35.41;101893.09;5061905;28;20588;-75
2022/06/17 10:51:10;;;;;;;5.43;2.22;;;;;;;28.34;34.15;101884.72;5059567;28;20075;-75
2022/06/17 10:53:54;;;;;;;4.90;2.25;;;;;;;28.46;33.98;101880.03;5066395;28;20131;-75
2022/06/17 10:56:34;;;;;;;1.92;1.45;;;;;;;28.27;33.55;101893.69;5059949;28;20059;-76
2022/06/17 10:59:06;;;;;;;5.50;2.42;;;;;;;28.32;33.04;101898.69;5064878;28;20434;-75
2022/06/17 11:01:45;;;;;;;5.72;2.30;;;;;;;28.52;32.53;101890.22;5059907;28;20130;-73
2022/06/17 11:04:17;;;;;;;5.25;2.30;;;;;;;28.50;32.42;101894.84;5058127;28;20080;-75
2022/06/17 11:07:05;;;;;;;5.82;2.38;;;;;;;28.86;32.44;101888.69;5060589;28;20106;-76
2022/06/17 11:09:40;;;;;;;3.88;2.38;;;;;;;29.15;32.50;101894.28;5043059;28;20141;-76
2022/06/17 11:12:16;;;;;;;;;;;;;;;28.98;32.25;101894.03;5046589;28;20048;-76
2022/06/17 11:14:46;;;;;;;6.93;2.42;;;;;;;29.36;32.43;101888.06;5047657;28;20312;-77
2022/06/17 11:17:40;;;;;;;3.65;1.90;;;;;;;29.27;32.53;101881.75;5044511;28;20053;-75
2022/06/17 11:20:21;;;;;;;8.63;2.25;;;;;;;29.52;32.16;101873.25;5045272;28;20151;-75
2022/06/17 11:23:25;;;;;;;4.43;2.00;;;;;;;29.72;31.52;101875.28;5045994;28;21100;-75
2022/06/17 11:26:09;;;;;;;5.90;1.98;;;;;;;29.58;30.92;101868.38;5040367;28;20050;-74
2022/06/17 11:28:40;;;;;;;4.88;2.28;;;;;;;29.60;31.57;101874.38;5048327;28;20044;-76
2022/06/17 11:31:28;;;;;;;5.15;1.95;;;;;;;29.56;31.84;101868.09;5046764;28;20049;-74
2022/06/17 11:34:02;;;;;;;6.80;2.15;;;;;;;29.72;31.33;101857.41;5041752;28;20072;-76
2022/06/17 11:36:30;;;;;;;4.15;1.90;;;;;;;29.52;30.50;101852.50;5060932;28;20078;-76
2022/06/17 11:39:04;;;;;;;3.35;1.02;;;;;;;29.15;30.40;101855.16;5046876;28;20048;-76
2022/06/17 11:41:33;;;;;;;3.75;2.25;;;;;;;29.47;30.61;101854.03;5044762;28;20046;-76
2022/06/17 11:44:12;;;;;;;4.95;2.17;;;;;;;29.51;30.61;101856.63;5048172;28;20095;-77
2022/06/17 11:46:55;;;;;;;5.88;1.90;;;;;;;29.64;30.44;101855.00;5050103;28;20056;-76
2022/06/17 11:49:22;;;;;;;3.70;1.92;;;;;;;29.63;29.61;101850.56;5053273;28;20163;-73
2022/06/17 11:52:00;;;;;;;4.82;2.25;;;;;;;29.59;28.56;101855.69;5045829;28;20143;-77
2022/06/17 11:54:48;;;;;;;4.53;1.90;;;;;;;29.60;30.67;101842.25;5051799;28;20049;-76
2022/06/17 11:57:30;;;;;;;3.42;1.80;;;;;;;29.61;29.70;101844.59;5051497;28;20068;-76